Terminal Aerodrome Forecast
Issued by NWS Shreveport, LA

Home | Current Version | Previous Version | Text Only | Print | Product List | Glossary On
Versions: 1 2 3 4 5 6 7 8 9 10 11 12 13 14
034
FTUS44 KSHV 290839 AAA
TAFGGG
TAF AMD
KGGG 290839Z 2909/3006 12010KT P6SM SCT025 BKN035
     FM291000 15012KT P6SM VCTS SCT025 OVC040CB
      TEMPO 2910/2914 VRB20G35KT 3SM TSRA BR OVC010CB
     FM291400 16012G18KT P6SM VCTS OVC015CB
      TEMPO 2914/2918 16015G25KT 3SM -TSRA BR OVC030CB
     FM291800 16015G25KT P6SM VCTS OVC030CB
     FM292100 18015G25KT P6SM BKN040
     FM300000 19012KT P6SM SCT045 BKN250=

USA.gov is the U.S. government's official web portal to all federal, state and local government web resources and services.